Time;durP1;ratioP1;P1;durP2;ratioP2;P2;SDS_P1;SDS_P2;PMS_P1;PMS_P2;Temp;Humidity;BMP_temperature;BMP_pressure;BME280_temperature;BME280_humidity;BME280_pressure;Samples;Min_cycle;Max_cycle;Signal;HPM_P1;HPM_P2
2021/12/11 00:01:52;;;;;;;23.93;8.27;;;;;;;-145.18;100.00;60484.78;5024814;28;20264;-70
2021/12/11 00:04:32;;;;;;;22.00;9.30;;;;;;;-145.18;100.00;60484.78;5025489;28;20028;-70
2021/12/11 00:07:02;;;;;;;23.83;9.30;;;;;;;-145.18;100.00;60484.78;5025143;28;20308;-70
2021/12/11 00:09:43;;;;;;;20.13;9.13;;;;;;;-145.18;100.00;60484.78;5027759;28;20283;-70
2021/12/11 00:12:37;;;;;;;18.50;7.77;;;;;;;-145.18;100.00;60484.78;5028716;28;20946;-70
2021/12/11 00:15:16;;;;;;;27.13;10.00;;;;;;;-145.18;100.00;60484.78;5024503;28;20283;-70
2021/12/11 00:17:41;;;;;;;16.20;6.93;;;;;;;-145.18;100.00;60484.78;5028731;28;20287;-70
2021/12/11 00:20:18;;;;;;;21.17;8.73;;;;;;;-145.18;100.00;60484.78;5029146;28;20260;-70
2021/12/11 00:22:45;;;;;;;30.03;9.60;;;;;;;-145.18;100.00;60484.78;5028831;28;20033;-70
2021/12/11 00:25:12;;;;;;;27.07;9.30;;;;;;;-145.18;100.00;60484.78;5029042;28;20264;-70
2021/12/11 00:27:42;;;;;;;21.47;9.23;;;;;;;-145.18;100.00;60484.78;5027944;28;20263;-70
2021/12/11 00:30:11;;;;;;;22.13;9.53;;;;;;;-145.18;100.00;60484.78;5028044;28;21010;-70
2021/12/11 00:32:37;;;;;;;23.07;9.27;;;;;;;-145.18;100.00;60484.78;5028884;28;20275;-70
2021/12/11 00:35:07;;;;;;;27.17;9.87;;;;;;;-145.18;100.00;60484.78;5028122;28;20637;-70
2021/12/11 00:37:34;;;;;;;22.63;9.47;;;;;;;-145.18;100.00;60484.78;5028273;28;20078;-70
2021/12/11 00:40:03;;;;;;;22.83;9.13;;;;;;;-145.18;100.00;60484.78;5028833;28;20303;-70
2021/12/11 00:42:33;;;;;;;23.07;9.37;;;;;;;-145.18;100.00;60484.78;5028650;28;20411;-70
2021/12/11 00:45:20;;;;;;;22.47;9.73;;;;;;;-145.18;100.00;60484.78;5028733;28;20306;-70
2021/12/11 00:47:58;;;;;;;24.43;9.00;;;;;;;-145.18;100.00;60484.78;5027067;28;20298;-70
2021/12/11 00:50:28;;;;;;;20.40;9.47;;;;;;;-145.18;100.00;60484.78;5028228;28;20400;-70
2021/12/11 00:53:13;;;;;;;24.27;9.50;;;;;;;-145.18;100.00;60484.78;5027541;28;20260;-70
2021/12/11 00:55:51;;;;;;;21.40;8.67;;;;;;;-145.18;100.00;60484.78;5027878;28;20271;-70
2021/12/11 00:58:26;;;;;;;23.63;9.73;;;;;;;-145.18;100.00;60484.78;5028434;28;20260;-70
2021/12/11 01:01:24;;;;;;;24.87;9.43;;;;;;;-145.18;100.00;60484.78;5027303;28;21109;-70
2021/12/11 01:03:52;;;;;;;26.77;10.57;;;;;;;-145.18;100.00;60484.78;5027342;28;20322;-70
2021/12/11 01:06:22;;;;;;;26.63;9.07;;;;;;;-145.18;100.00;60484.78;5027925;28;20351;-70
2021/12/11 01:08:57;;;;;;;25.50;9.40;;;;;;;-145.18;100.00;60484.78;5027573;28;20295;-70
2021/12/11 01:11:43;;;;;;;23.93;9.03;;;;;;;-145.18;100.00;60484.78;5028327;28;20268;-70
2021/12/11 01:14:18;;;;;;;23.53;9.93;;;;;;;-145.18;100.00;60484.78;5028225;28;20330;-70
2021/12/11 01:16:56;;;;;;;24.93;9.83;;;;;;;-145.18;100.00;60484.78;5027843;28;20264;-70
2021/12/11 01:19:23;;;;;;;21.50;10.07;;;;;;;-145.18;100.00;60484.78;5027425;28;20268;-70
2021/12/11 01:21:57;;;;;;;24.23;9.97;;;;;;;-145.18;100.00;60484.78;5027884;28;20263;-70
2021/12/11 01:24:45;;;;;;;23.30;9.03;;;;;;;-145.18;100.00;60484.78;5027737;28;20354;-70
2021/12/11 01:27:15;;;;;;;21.20;8.87;;;;;;;-145.18;100.00;60484.78;5027915;28;20407;-70
2021/12/11 01:29:42;;;;;;;19.17;7.90;;;;;;;-145.18;100.00;60484.78;5027770;28;20287;-70
2021/12/11 01:32:09;;;;;;;23.93;8.93;;;;;;;-145.18;100.00;60484.78;5027577;28;20263;-70
2021/12/11 01:34:35;;;;;;;21.37;8.40;;;;;;;-145.18;100.00;60484.78;5027266;28;20407;-70
2021/12/11 01:37:02;;;;;;;21.20;9.73;;;;;;;-145.18;100.00;60484.78;5027144;28;20272;-70
2021/12/11 01:39:32;;;;;;;18.30;8.00;;;;;;;-145.18;100.00;60484.78;5027154;28;20260;-70
2021/12/11 01:41:58;;;;;;;22.50;8.67;;;;;;;-145.18;100.00;60484.78;5027584;28;20358;-70
2021/12/11 01:44:31;;;;;;;27.40;8.80;;;;;;;-145.18;100.00;60484.78;5026287;28;20279;-70
2021/12/11 01:47:15;;;;;;;19.73;8.80;;;;;;;-145.18;100.00;60484.78;5028163;28;20298;-70
2021/12/11 01:49:44;;;;;;;20.80;9.10;;;;;;;-145.18;100.00;60484.78;5026968;28;20349;-70
2021/12/11 01:52:33;;;;;;;24.50;9.10;;;;;;;-145.18;100.00;60484.78;5026523;28;20434;-70
2021/12/11 01:55:00;;;;;;;22.87;9.23;;;;;;;-145.18;100.00;60484.78;5027000;28;20272;-70
2021/12/11 01:57:30;;;;;;;25.13;9.30;;;;;;;-145.18;100.00;60484.78;5027586;28;20637;-70
2021/12/11 02:00:01;;;;;;;27.87;8.53;;;;;;;-145.18;100.00;60484.78;5026212;28;20307;-70
2021/12/11 02:02:41;;;;;;;26.77;8.70;;;;;;;-145.18;100.00;60484.78;5033115;23;20315;-66
2021/12/11 02:05:08;;;;;;;21.67;8.80;;;;;;;-145.18;100.00;60484.78;5025598;28;20264;-66
2021/12/11 02:07:42;;;;;;;20.37;8.60;;;;;;;-145.18;100.00;60484.78;5026120;28;20275;-66
2021/12/11 02:10:18;;;;;;;27.43;9.43;;;;;;;-145.18;100.00;60484.78;5025588;28;20288;-66
2021/12/11 02:12:44;;;;;;;24.40;8.43;;;;;;;-145.18;100.00;60484.78;5024664;28;20271;-66
2021/12/11 02:15:24;;;;;;;23.53;9.27;;;;;;;-145.18;100.00;60484.78;5025733;28;20290;-66
2021/12/11 02:17:56;;;;;;;23.20;8.80;;;;;;;-145.18;100.00;60484.78;5025556;28;20037;-66
2021/12/11 02:20:31;;;;;;;25.13;9.63;;;;;;;-145.18;100.00;60484.78;5008537;28;20282;-66
2021/12/11 02:22:58;;;;;;;26.10;9.30;;;;;;;-145.18;100.00;60484.78;5024655;28;20025;-66
2021/12/11 02:25:30;;;;;;;23.73;9.27;;;;;;;-145.18;100.00;60484.78;5025035;28;20754;-66
2021/12/11 02:28:12;;;;;;;21.88;8.98;;;;;;;-145.18;100.00;60484.78;5025413;28;20264;-66
2021/12/11 02:30:47;;;;;;;20.42;8.90;;;;;;;-145.18;100.00;60484.78;5025320;28;20072;-66
2021/12/11 02:33:22;;;;;;;24.80;10.10;;;;;;;-145.18;100.00;60484.78;5025256;28;20041;-66
2021/12/11 02:36:09;;;;;;;20.93;10.07;;;;;;;-145.18;100.00;60484.78;5025543;28;20267;-66
2021/12/11 02:38:50;;;;;;;21.07;8.70;;;;;;;-145.18;100.00;60484.78;5025246;28;20282;-66
2021/12/11 02:41:19;;;;;;;20.13;8.57;;;;;;;-145.18;100.00;60484.78;5024745;28;20907;-66
2021/12/11 02:44:19;;;;;;;26.27;9.60;;;;;;;-145.18;100.00;60484.78;5025210;28;20267;-66
2021/12/11 02:47:10;;;;;;;19.23;8.63;;;;;;;-145.18;100.00;60484.78;4971983;28;20670;-66
2021/12/11 02:49:45;;;;;;;23.30;8.57;;;;;;;-145.18;100.00;60484.78;4972167;28;20631;-66
2021/12/11 02:52:16;;;;;;;21.10;8.43;;;;;;;-145.18;100.00;60484.78;4972390;28;20932;-66
2021/12/11 02:55:07;;;;;;;23.17;9.47;;;;;;;-145.18;100.00;60484.78;4972245;28;20699;-66
2021/12/11 02:57:38;;;;;;;21.43;9.17;;;;;;;-145.18;100.00;60484.78;4961584;28;20353;-66
2021/12/11 03:00:17;;;;;;;22.20;8.73;;;;;;;-145.18;100.00;60484.78;4972170;28;20706;-66
2021/12/11 03:02:48;;;;;;;18.97;7.63;;;;;;;-145.18;100.00;60484.78;4975051;28;20293;-66
2021/12/11 03:05:20;;;;;;;24.67;9.97;;;;;;;-145.18;100.00;60484.78;4981429;28;20275;-66
2021/12/11 03:07:50;;;;;;;21.83;8.37;;;;;;;-145.18;100.00;60484.78;4981892;28;20253;-66
2021/12/11 03:10:21;;;;;;;18.60;7.87;;;;;;;-145.18;100.00;60484.78;4981210;28;20363;-66
2021/12/11 03:12:47;;;;;;;29.90;8.40;;;;;;;-145.18;100.00;60484.78;4982199;28;20308;-65
2021/12/11 03:15:15;;;;;;;19.90;7.70;;;;;;;-145.18;100.00;60484.78;4982004;28;20443;-66
2021/12/11 03:17:41;;;;;;;20.23;8.87;;;;;;;-145.18;100.00;60484.78;4980204;28;20110;-66
2021/12/11 03:20:10;;;;;;;23.27;8.47;;;;;;;-145.18;100.00;60484.78;4981241;28;20443;-66
2021/12/11 03:22:36;;;;;;;20.20;8.60;;;;;;;-145.18;100.00;60484.78;4998660;28;20037;-66
2021/12/11 03:25:06;;;;;;;17.03;7.90;;;;;;;-145.18;100.00;60484.78;5043184;28;20278;-66
2021/12/11 03:27:32;;;;;;;35.40;12.27;;;;;;;-145.18;100.00;60484.78;5042786;28;20436;-66
2021/12/11 03:29:58;;;;;;;36.07;12.73;;;;;;;-145.18;100.00;60484.78;5044731;28;20282;-66
2021/12/11 03:32:23;;;;;;;29.43;12.57;;;;;;;-145.18;100.00;60484.78;5042900;28;20442;-66
2021/12/11 03:34:49;;;;;;;31.30;10.50;;;;;;;-145.18;100.00;60484.78;5042783;28;20028;-66
2021/12/11 03:37:17;;;;;;;27.73;10.87;;;;;;;-145.18;100.00;60484.78;5044368;28;20112;-66
2021/12/11 03:39:48;;;;;;;25.30;11.07;;;;;;;-145.18;100.00;60484.78;5043298;28;20148;-65
2021/12/11 03:42:18;;;;;;;23.73;9.97;;;;;;;-145.18;100.00;60484.78;5043356;28;20276;-66
2021/12/11 03:44:44;;;;;;;28.37;10.10;;;;;;;-145.18;100.00;60484.78;5043179;28;20402;-66
2021/12/11 03:47:14;;;;;;;27.17;10.50;;;;;;;-145.18;100.00;60484.78;5042497;28;20270;-66
2021/12/11 03:49:40;;;;;;;24.07;9.60;;;;;;;-145.18;100.00;60484.78;5043292;28;20291;-66
2021/12/11 03:52:07;;;;;;;25.33;9.33;;;;;;;-145.18;100.00;60484.78;5026672;28;20271;-65
2021/12/11 03:54:35;;;;;;;30.30;10.53;;;;;;;-145.18;100.00;60484.78;5043599;28;20032;-66
2021/12/11 03:57:01;;;;;;;25.83;9.70;;;;;;;-145.18;100.00;60484.78;5042648;28;20291;-65
2021/12/11 03:59:28;;;;;;;24.10;9.53;;;;;;;-145.18;100.00;60484.78;5043760;28;20802;-66
2021/12/11 04:01:58;;;;;;;22.10;9.43;;;;;;;-145.18;100.00;60484.78;5042962;28;20356;-66
2021/12/11 04:04:32;;;;;;;22.93;9.63;;;;;;;-145.18;100.00;60484.78;5043529;28;20334;-66
2021/12/11 04:06:59;;;;;;;23.67;9.87;;;;;;;-145.18;100.00;60484.78;5043890;28;20620;-66
2021/12/11 04:09:26;;;;;;;22.77;9.40;;;;;;;-145.18;100.00;60484.78;5044234;28;20298;-66
2021/12/11 04:11:53;;;;;;;27.30;10.53;;;;;;;-145.18;100.00;60484.78;5043429;28;20287;-66
2021/12/11 04:14:22;;;;;;;25.30;9.83;;;;;;;-145.18;100.00;60484.78;5043684;28;20290;-66
2021/12/11 04:16:49;;;;;;;23.50;10.50;;;;;;;-145.18;100.00;60484.78;5043829;28;20378;-66
2021/12/11 04:19:15;;;;;;;22.33;8.73;;;;;;;-145.18;100.00;60484.78;5042847;28;20676;-66
2021/12/11 04:21:42;;;;;;;20.13;9.40;;;;;;;-145.18;100.00;60484.78;5041919;28;20659;-65
2021/12/11 04:24:10;;;;;;;24.07;10.43;;;;;;;-145.18;100.00;60484.78;5040149;28;20275;-65
2021/12/11 04:26:36;;;;;;;25.77;9.60;;;;;;;-145.18;100.00;60484.78;5040638;28;20280;-65
2021/12/11 04:29:04;;;;;;;23.83;9.10;;;;;;;-145.18;100.00;60484.78;5036422;28;20290;-66
2021/12/11 04:31:31;;;;;;;27.63;10.77;;;;;;;-145.18;100.00;60484.78;5043027;28;20279;-66
2021/12/11 04:33:59;;;;;;;25.43;10.87;;;;;;;-145.18;100.00;60484.78;5034787;28;20283;-66
2021/12/11 04:36:34;;;;;;;25.83;10.40;;;;;;;-145.18;100.00;60484.78;5023942;28;20544;-66
2021/12/11 04:39:03;;;;;;;23.70;9.73;;;;;;;-145.18;100.00;60484.78;5033612;28;20260;-65
2021/12/11 04:41:38;;;;;;;25.53;11.13;;;;;;;-145.18;100.00;60484.78;5024030;28;20295;-66
2021/12/11 04:44:10;;;;;;;26.97;10.20;;;;;;;-145.18;100.00;60484.78;5020938;28;20283;-66
2021/12/11 04:46:36;;;;;;;23.35;9.98;;;;;;;-145.18;100.00;60484.78;5022734;28;20621;-65
2021/12/11 04:49:27;;;;;;;26.00;9.57;;;;;;;-145.18;100.00;60484.78;5039412;28;20047;-66
2021/12/11 04:52:03;;;;;;;23.57;9.97;;;;;;;-145.18;100.00;60484.78;5035177;28;20119;-65
2021/12/11 04:59:52;;;;;;;21.27;9.30;;;;;;;-145.18;100.00;60484.78;5035103;28;20272;-65
2021/12/11 05:07:40;;;;;;;23.87;10.60;;;;;;;-145.18;100.00;60484.78;5050947;28;20306;-65
2021/12/11 05:10:23;;;;;;;27.03;9.90;;;;;;;-145.18;100.00;60484.78;5035858;28;20287;-65
2021/12/11 05:12:53;;;;;;;36.07;11.83;;;;;;;-145.18;100.00;60484.78;5054229;28;20271;-65
2021/12/11 05:15:25;;;;;;;27.23;9.83;;;;;;;-145.18;100.00;60484.78;5040627;28;20343;-65
2021/12/11 05:17:53;;;;;;;39.47;10.30;;;;;;;-145.18;100.00;60484.78;5053817;28;20267;-65
2021/12/11 05:20:22;;;;;;;28.03;11.50;;;;;;;-145.18;100.00;60484.78;5033164;28;20033;-65
2021/12/11 05:22:48;;;;;;;30.97;11.33;;;;;;;-145.18;100.00;60484.78;5038273;28;20421;-66
2021/12/11 05:25:15;;;;;;;32.57;11.73;;;;;;;-145.18;100.00;60484.78;5044488;28;20270;-65
2021/12/11 05:27:42;;;;;;;37.70;13.53;;;;;;;-145.18;100.00;60484.78;5039969;28;20012;-66
2021/12/11 05:30:14;;;;;;;35.47;13.00;;;;;;;-145.18;100.00;60484.78;5044025;28;20287;-65
2021/12/11 05:32:39;;;;;;;39.97;12.20;;;;;;;-145.18;100.00;60484.78;5048341;28;20721;-65
2021/12/11 05:35:09;;;;;;;38.17;12.83;;;;;;;-145.18;100.00;60484.78;5051828;28;20279;-65
2021/12/11 05:37:36;;;;;;;41.77;14.03;;;;;;;-145.18;100.00;60484.78;5042231;28;20391;-66
2021/12/11 05:40:03;;;;;;;34.53;13.03;;;;;;;-145.18;100.00;60484.78;5043602;28;20603;-65
2021/12/11 05:42:29;;;;;;;38.33;12.43;;;;;;;-145.18;100.00;60484.78;5043404;28;20640;-65
2021/12/11 05:44:54;;;;;;;36.47;12.87;;;;;;;-145.18;100.00;60484.78;5029068;28;20286;-66
2021/12/11 05:47:20;;;;;;;37.33;13.73;;;;;;;-145.18;100.00;60484.78;5039200;28;20088;-65
2021/12/11 05:49:46;;;;;;;36.47;13.43;;;;;;;-145.18;100.00;60484.78;5031783;28;20074;-65
2021/12/11 05:52:13;;;;;;;39.80;13.37;;;;;;;-145.18;100.00;60484.78;5039363;28;20028;-65
2021/12/11 05:54:43;;;;;;;31.77;13.27;;;;;;;-145.18;100.00;60484.78;5045706;28;20282;-65
2021/12/11 05:57:12;;;;;;;46.77;16.70;;;;;;;-145.18;100.00;60484.78;5037334;28;20472;-65
2021/12/11 05:59:40;;;;;;;41.20;15.10;;;;;;;-145.18;100.00;60484.78;5047726;28;20267;-65
2021/12/11 06:02:23;;;;;;;50.43;14.83;;;;;;;-145.18;100.00;60484.78;5042981;28;20294;-65
2021/12/11 06:04:51;;;;;;;60.22;14.70;;;;;;;-145.18;100.00;60484.78;5047154;28;20329;-65
2021/12/11 06:07:19;;;;;;;38.33;13.30;;;;;;;-145.18;100.00;60484.78;5050314;28;20036;-66
2021/12/11 06:09:49;;;;;;;33.83;12.80;;;;;;;-145.18;100.00;60484.78;5045850;28;20283;-65
2021/12/11 06:12:17;;;;;;;43.57;13.23;;;;;;;-145.18;100.00;60484.78;5044422;28;20325;-65
2021/12/11 06:14:44;;;;;;;37.13;14.87;;;;;;;-145.18;100.00;60484.78;5051666;28;20636;-65
2021/12/11 06:17:12;;;;;;;36.87;13.50;;;;;;;-145.18;100.00;60484.78;5044208;28;20294;-66
2021/12/11 06:19:41;;;;;;;34.20;13.67;;;;;;;-145.18;100.00;60484.78;5043055;28;20298;-65
2021/12/11 06:22:06;;;;;;;42.13;14.07;;;;;;;-145.18;100.00;60484.78;5040290;28;20294;-65
2021/12/11 06:24:32;;;;;;;43.57;13.97;;;;;;;-145.18;100.00;60484.78;5043450;28;20275;-65
2021/12/11 06:26:58;;;;;;;39.07;14.37;;;;;;;-145.18;100.00;60484.78;5045466;28;20303;-66
2021/12/11 06:29:25;;;;;;;41.90;13.00;;;;;;;-145.18;100.00;60484.78;5038379;28;20259;-65
2021/12/11 06:31:51;;;;;;;37.17;14.23;;;;;;;-145.18;100.00;60484.78;5049510;28;20271;-65
2021/12/11 06:34:17;;;;;;;49.53;14.70;;;;;;;-145.18;100.00;60484.78;5037010;28;20899;-66
2021/12/11 06:36:45;;;;;;;44.87;14.43;;;;;;;-145.18;100.00;60484.78;5033208;28;20325;-66
2021/12/11 06:39:14;;;;;;;37.23;13.83;;;;;;;-145.18;100.00;60484.78;5049278;28;20025;-65
2021/12/11 06:41:43;;;;;;;40.27;13.67;;;;;;;-145.18;100.00;60484.78;5029004;28;20279;-66
2021/12/11 06:44:10;;;;;;;39.33;13.70;;;;;;;-145.18;100.00;60484.78;5045039;28;20345;-65
2021/12/11 06:46:37;;;;;;;37.90;14.00;;;;;;;-145.18;100.00;60484.78;5034764;28;20609;-65
2021/12/11 06:49:04;;;;;;;46.57;15.23;;;;;;;-145.18;100.00;60484.78;5039714;28;20268;-66
2021/12/11 06:51:29;;;;;;;44.93;14.73;;;;;;;-145.18;100.00;60484.78;5042450;28;20476;-65
2021/12/11 06:54:00;;;;;;;49.57;15.50;;;;;;;-145.18;100.00;60484.78;5043529;28;20279;-65
2021/12/11 06:56:27;;;;;;;49.77;17.33;;;;;;;-145.18;100.00;60484.78;5042324;28;20033;-65
2021/12/11 06:58:54;;;;;;;43.00;15.70;;;;;;;-145.18;100.00;60484.78;5035622;28;20275;-65
2021/12/11 07:01:21;;;;;;;58.57;15.93;;;;;;;-145.18;100.00;60484.78;5031665;28;20279;-65
2021/12/11 07:03:47;;;;;;;47.80;15.87;;;;;;;-145.18;100.00;60484.78;5043118;28;20306;-65
2021/12/11 07:06:13;;;;;;;59.67;19.50;;;;;;;-145.18;100.00;60484.78;5029006;28;20288;-65
2021/12/11 07:08:39;;;;;;;48.73;17.23;;;;;;;-145.18;100.00;60484.78;5055916;28;20514;-66
2021/12/11 07:11:11;;;;;;;56.83;18.13;;;;;;;-145.18;100.00;60484.78;5047110;28;20271;-65
2021/12/11 07:13:38;;;;;;;55.70;17.50;;;;;;;-145.18;100.00;60484.78;5053766;28;20279;-65
2021/12/11 07:16:04;;;;;;;49.60;17.13;;;;;;;-145.18;100.00;60484.78;5042336;28;20256;-65
2021/12/11 07:18:31;;;;;;;59.13;16.20;;;;;;;-145.18;100.00;60484.78;5032813;28;20478;-65
2021/12/11 07:20:57;;;;;;;54.67;17.47;;;;;;;-145.18;100.00;60484.78;5054393;28;20280;-65
2021/12/11 07:23:23;;;;;;;59.10;17.40;;;;;;;-145.18;100.00;60484.78;5057296;28;20328;-66
2021/12/11 07:25:53;;;;;;;55.00;17.73;;;;;;;-145.18;100.00;60484.78;5027168;28;20559;-65
2021/12/11 07:28:21;;;;;;;60.37;18.10;;;;;;;-145.18;100.00;60484.78;5047845;28;20040;-65
2021/12/11 07:30:48;;;;;;;62.70;18.77;;;;;;;-145.18;100.00;60484.78;5030185;28;20632;-65
2021/12/11 07:33:15;;;;;;;68.30;18.20;;;;;;;-145.18;100.00;60484.78;5030129;28;20587;-65
2021/12/11 07:35:42;;;;;;;68.03;18.23;;;;;;;-145.18;100.00;60484.78;5045353;28;20676;-66
2021/12/11 07:38:08;;;;;;;58.87;16.60;;;;;;;-145.18;100.00;60484.78;5044032;28;20328;-65
2021/12/11 07:40:39;;;;;;;62.13;19.20;;;;;;;-145.18;100.00;60484.78;5028013;28;20896;-65
2021/12/11 07:43:06;;;;;;;65.80;19.57;;;;;;;-145.18;100.00;60484.78;5031574;28;20068;-65
2021/12/11 07:45:33;;;;;;;68.53;19.23;;;;;;;-145.18;100.00;60484.78;5042653;28;20275;-65
2021/12/11 07:47:59;;;;;;;62.67;18.73;;;;;;;-145.18;100.00;60484.78;5043491;28;20279;-66
2021/12/11 07:50:25;;;;;;;66.03;18.87;;;;;;;-145.18;100.00;60484.78;5031508;28;20374;-65
2021/12/11 07:52:50;;;;;;;66.40;19.90;;;;;;;-145.18;100.00;60484.78;5045664;28;20097;-65
2021/12/11 07:55:16;;;;;;;60.43;18.70;;;;;;;-145.18;100.00;60484.78;5043437;28;20279;-65
2021/12/11 07:57:43;;;;;;;62.20;18.37;;;;;;;-145.18;100.00;60484.78;5050907;28;20543;-66
2021/12/11 08:00:12;;;;;;;70.30;19.77;;;;;;;-145.18;100.00;60484.78;5041487;28;20020;-66
2021/12/11 08:02:38;;;;;;;66.90;19.87;;;;;;;-145.18;100.00;60484.78;5045347;28;20303;-65
2021/12/11 08:05:05;;;;;;;63.57;19.30;;;;;;;-145.18;100.00;60484.78;5042621;28;20774;-65
2021/12/11 08:07:30;;;;;;;59.90;18.17;;;;;;;-145.18;100.00;60484.78;5044929;28;20044;-65
2021/12/11 08:09:56;;;;;;;52.40;17.37;;;;;;;-145.18;100.00;60484.78;5046972;28;20280;-65
2021/12/11 08:12:21;;;;;;;58.27;19.17;;;;;;;-145.18;100.00;60484.78;5043070;28;20044;-66
2021/12/11 08:14:47;;;;;;;76.93;18.73;;;;;;;-145.18;100.00;60484.78;5036451;28;20025;-65
2021/12/11 08:17:13;;;;;;;49.43;18.07;;;;;;;-145.18;100.00;60484.78;5040740;28;20528;-65
2021/12/11 08:19:38;;;;;;;57.27;19.87;;;;;;;-145.18;100.00;60484.78;5033966;28;20036;-66
2021/12/11 08:22:07;;;;;;;53.53;17.30;;;;;;;-145.18;100.00;60484.78;5046752;28;20036;-66
2021/12/11 08:24:34;;;;;;;39.37;14.27;;;;;;;-145.18;100.00;60484.78;5037016;28;20032;-66
2021/12/11 08:27:05;;;;;;;36.57;15.67;;;;;;;-145.18;100.00;60484.78;5038917;28;20268;-66
2021/12/11 08:29:31;;;;;;;30.30;14.03;;;;;;;-145.18;100.00;60484.78;5030000;28;20287;-66
2021/12/11 08:31:58;;;;;;;32.67;13.30;;;;;;;-145.18;100.00;60484.78;5047020;28;20278;-66
2021/12/11 08:34:24;;;;;;;25.47;10.43;;;;;;;-145.18;100.00;60484.78;5047715;28;20817;-66
2021/12/11 08:36:50;;;;;;;24.17;9.80;;;;;;;-145.18;100.00;60484.78;5043561;28;20283;-66
2021/12/11 08:39:17;;;;;;;26.47;9.77;;;;;;;-145.18;100.00;60484.78;5043786;28;20763;-66
2021/12/11 08:41:44;;;;;;;24.40;10.37;;;;;;;-145.18;100.00;60484.78;5045384;28;20426;-66
2021/12/11 08:44:13;;;;;;;24.03;9.73;;;;;;;-145.18;100.00;60484.78;5045146;28;20032;-66
2021/12/11 08:46:52;;;;;;;20.53;8.93;;;;;;;-145.18;100.00;60484.78;5048390;28;20048;-66
2021/12/11 08:49:23;;;;;;;19.67;9.20;;;;;;;-145.18;100.00;60484.78;5040159;28;20281;-66
2021/12/11 08:52:02;;;;;;;19.63;8.77;;;;;;;-145.18;100.00;60484.78;5044060;28;20055;-66
2021/12/11 08:54:29;;;;;;;23.17;9.17;;;;;;;-145.18;100.00;60484.78;5024448;28;20029;-66
2021/12/11 08:56:56;;;;;;;22.40;9.10;;;;;;;-145.18;100.00;60484.78;5031433;28;20040;-66
2021/12/11 08:59:24;;;;;;;22.23;9.40;;;;;;;-145.18;100.00;60484.78;5038979;28;20034;-66
2021/12/11 09:02:12;;;;;;;23.03;9.90;;;;;;;-145.18;100.00;60484.78;5051106;28;20279;-66
2021/12/11 09:04:53;;;;;;;25.40;10.67;;;;;;;-145.18;100.00;60484.78;5043051;28;20287;-66
2021/12/11 09:07:26;;;;;;;32.80;12.43;;;;;;;-145.18;100.00;60484.78;5027948;28;20647;-66
2021/12/11 09:10:20;;;;;;;27.40;11.37;;;;;;;-145.18;100.00;60484.78;5024685;28;20393;-66
2021/12/11 09:12:54;;;;;;;27.73;12.17;;;;;;;-145.18;100.00;60484.78;5025133;28;20372;-66
2021/12/11 09:15:40;;;;;;;27.47;12.07;;;;;;;-145.18;100.00;60484.78;5024464;28;20328;-65
2021/12/11 09:18:14;;;;;;;32.47;12.53;;;;;;;-145.18;100.00;60484.78;5025081;28;20283;-65
2021/12/11 09:20:52;;;;;;;31.20;12.90;;;;;;;-145.18;100.00;60484.78;5024836;28;20286;-66
2021/12/11 09:23:17;;;;;;;32.53;13.23;;;;;;;-145.18;100.00;60484.78;5052660;28;20835;-66
2021/12/11 09:25:58;;;;;;;39.63;19.20;;;;;;;-145.18;100.00;60484.78;5032271;28;20339;-65
2021/12/11 09:28:31;;;;;;;33.63;13.93;;;;;;;-145.18;100.00;60484.78;5043299;28;20220;-65
2021/12/11 09:31:00;;;;;;;33.23;14.20;;;;;;;-145.18;100.00;60484.78;5033377;28;20280;-66
2021/12/11 09:33:32;;;;;;;37.23;14.93;;;;;;;-145.18;100.00;60484.78;5044550;28;20345;-66
2021/12/11 09:36:07;;;;;;;36.22;15.95;;;;;;;-145.18;100.00;60484.78;5044144;28;20782;-66
2021/12/11 09:38:42;;;;;;;36.93;14.83;;;;;;;-145.18;100.00;60484.78;5035099;28;20111;-65
2021/12/11 09:41:24;;;;;;;32.80;15.37;;;;;;;-145.18;100.00;60484.78;5035662;28;20728;-66
2021/12/11 09:44:17;;;;;;;37.60;14.05;;;;;;;-145.18;100.00;60484.78;5050475;28;20282;-65
2021/12/11 09:46:55;;;;;;;35.97;15.60;;;;;;;-145.18;100.00;60484.78;5038805;28;20028;-66
2021/12/11 09:49:26;;;;;;;36.20;15.33;;;;;;;-145.18;100.00;60484.78;5043667;28;20310;-65
2021/12/11 09:52:01;;;;;;;37.83;16.47;;;;;;;-145.18;100.00;60484.78;5050934;28;20342;-65
2021/12/11 09:54:28;;;;;;;45.50;16.80;;;;;;;-145.18;100.00;60484.78;5032237;28;20289;-66
2021/12/11 09:57:06;;;;;;;43.03;18.00;;;;;;;-145.18;100.00;60484.78;5042530;28;20316;-66
2021/12/11 09:59:35;;;;;;;39.87;17.27;;;;;;;-145.18;100.00;60484.78;5033846;28;20271;-65
2021/12/11 10:02:06;;;;;;;38.17;15.27;;;;;;;-145.18;100.00;60484.78;5039107;28;20851;-65
2021/12/11 10:04:39;;;;;;;35.57;16.73;;;;;;;-145.18;100.00;60484.78;5043001;28;20324;-65
2021/12/11 10:09:45;;;;;;;36.88;14.18;;;;;;;-145.18;100.00;60484.78;5045794;28;20302;-65
2021/12/11 10:12:17;;;;;;;39.07;16.27;;;;;;;-145.18;100.00;60484.78;5043503;28;20033;-66
2021/12/11 10:14:54;;;;;;;40.90;14.77;;;;;;;-145.18;100.00;60484.78;5023653;28;20260;-66
2021/12/11 10:17:34;;;;;;;35.50;14.97;;;;;;;-145.18;100.00;60484.78;5032369;28;20060;-65
2021/12/11 10:20:02;;;;;;;52.50;15.93;;;;;;;-145.18;100.00;60484.78;5040064;28;20259;-65
2021/12/11 10:22:35;;;;;;;36.90;14.43;;;;;;;-145.18;100.00;60484.78;5039530;28;20299;-66
2021/12/11 10:25:05;;;;;;;39.27;16.37;;;;;;;-145.18;100.00;60484.78;5023693;28;20272;-65
2021/12/11 10:27:31;;;;;;;36.43;15.10;;;;;;;-145.18;100.00;60484.78;5038083;28;20324;-66
2021/12/11 10:29:59;;;;;;;33.73;15.00;;;;;;;-145.18;100.00;60484.78;5042664;28;20286;-66
2021/12/11 10:32:30;;;;;;;33.07;13.53;;;;;;;-145.18;100.00;60484.78;5047641;28;20271;-66
2021/12/11 10:35:02;;;;;;;29.40;13.00;;;;;;;-145.18;100.00;60484.78;5044324;28;20263;-66
2021/12/11 10:37:35;;;;;;;34.25;13.77;;;;;;;-145.18;100.00;60484.78;5044787;28;20421;-65
2021/12/11 10:40:04;;;;;;;;;;;;;;;-145.18;100.00;60484.78;5052174;28;20029;-66
2021/12/11 10:42:30;;;;;;;29.90;12.10;;;;;;;-145.18;100.00;60484.78;5052531;28;19923;-66
2021/12/11 10:44:58;;;;;;;37.40;13.60;;;;;;;-145.18;100.00;60484.78;5045282;28;20443;-66
2021/12/11 10:47:48;;;;;;;29.20;11.40;;;;;;;-145.18;100.00;60484.78;5044283;28;20178;-65
2021/12/11 10:50:34;;;;;;;29.53;13.00;;;;;;;-145.18;100.00;60484.78;5043526;28;20841;-66
2021/12/11 10:53:00;;;;;;;30.03;12.47;;;;;;;-145.18;100.00;60484.78;4970186;28;21000;-66
2021/12/11 10:55:32;;;;;;;34.53;13.93;;;;;;;-145.18;100.00;60484.78;4971967;28;20372;-66
2021/12/11 10:58:01;;;;;;;28.45;12.30;;;;;;;-145.18;100.00;60484.78;4972365;28;20865;-66
2021/12/11 11:00:33;;;;;;;34.93;11.67;;;;;;;-145.18;100.00;60484.78;4970935;28;20035;-66
2021/12/11 11:02:59;;;;;;;26.55;11.77;;;;;;;-145.18;100.00;60484.78;4970605;28;20358;-66
2021/12/11 11:05:27;;;;;;;30.30;11.83;;;;;;;-145.18;100.00;60484.78;4971228;28;20157;-66
2021/12/11 11:07:53;;;;;;;27.03;10.70;;;;;;;-145.18;100.00;60484.78;4972437;28;20595;-66
2021/12/11 11:10:31;;;;;;;25.73;10.33;;;;;;;-145.18;100.00;60484.78;4971385;28;20594;-65
2021/12/11 11:12:58;;;;;;;26.80;11.00;;;;;;;-145.18;100.00;60484.78;4971600;28;20089;-65
2021/12/11 11:15:25;;;;;;;27.23;11.57;;;;;;;-145.18;100.00;60484.78;4970389;28;20285;-65
2021/12/11 11:17:52;;;;;;;26.67;10.77;;;;;;;-145.18;100.00;60484.78;4971124;28;20617;-65
2021/12/11 11:20:29;;;;;;;25.60;10.97;;;;;;;-145.18;100.00;60484.78;4971953;28;20361;-65
2021/12/11 11:22:54;;;;;;;27.60;11.77;;;;;;;-145.18;100.00;60484.78;4971679;28;20506;-65
2021/12/11 11:25:22;;;;;;;27.17;11.67;;;;;;;-145.18;100.00;60484.78;4971764;28;20836;-67
2021/12/11 11:27:52;;;;;;;21.43;9.90;;;;;;;-145.18;100.00;60484.78;4971307;28;20040;-67